createdAt,value
2018-09-17T00:01:28.237Z,5.90
2018-09-17T00:03:56.738Z,5.67
2018-09-17T00:06:25.417Z,5.40
2018-09-17T00:08:54.153Z,6.00
2018-09-17T00:11:22.706Z,5.90
2018-09-17T00:13:51.228Z,6.33
2018-09-17T00:16:19.897Z,6.47
2018-09-17T00:18:48.682Z,6.53
2018-09-17T00:21:17.158Z,5.87
2018-09-17T00:23:45.793Z,5.67
2018-09-17T00:26:15.017Z,6.80
2018-09-17T00:28:43.568Z,6.57
2018-09-17T00:31:12.133Z,6.17
2018-09-17T00:33:40.592Z,6.17
2018-09-17T00:36:09.092Z,6.10
2018-09-17T00:38:37.609Z,6.07
2018-09-17T00:41:06.286Z,5.13
2018-09-17T00:43:34.794Z,5.90
2018-09-17T00:46:03.357Z,6.63
2018-09-17T00:48:32.102Z,6.73
2018-09-17T00:51:00.616Z,6.50
2018-09-17T00:53:29.205Z,5.73
2018-09-17T00:55:57.719Z,5.97
2018-09-17T00:58:26.797Z,6.23
2018-09-17T01:00:55.643Z,6.47
2018-09-17T01:03:24.506Z,5.77
2018-09-17T01:05:53.416Z,7.10
2018-09-17T01:08:23.198Z,5.97
2018-09-17T01:10:51.976Z,6.30
2018-09-17T01:13:22.112Z,6.20
2018-09-17T01:15:51.947Z,6.13
2018-09-17T01:18:20.814Z,6.57
2018-09-17T01:20:49.588Z,6.27
2018-09-17T01:23:19.146Z,5.83
2018-09-17T01:25:49.952Z,6.07
2018-09-17T01:28:20.211Z,6.47
2018-09-17T01:30:49.780Z,6.70
2018-09-17T01:33:18.518Z,6.60
2018-09-17T01:35:47.246Z,6.13
2018-09-17T01:38:16.170Z,5.97
2018-09-17T01:40:45.127Z,5.50
2018-09-17T01:43:14.260Z,5.60
2018-09-17T01:45:42.951Z,5.97
2018-09-17T01:48:11.582Z,5.30
2018-09-17T01:50:43.306Z,6.00
2018-09-17T01:53:12.900Z,6.07
2018-09-17T01:55:41.943Z,6.43
2018-09-17T01:58:11.572Z,5.87
2018-09-17T02:00:40.964Z,5.67
2018-09-17T02:03:09.700Z,5.73
2018-09-17T02:05:38.599Z,5.43
2018-09-17T02:08:07.699Z,5.33
2018-09-17T02:10:36.408Z,5.50
2018-09-17T02:13:05.352Z,5.53
2018-09-17T02:15:34.192Z,6.17
2018-09-17T02:18:03.650Z,5.53
2018-09-17T02:20:32.391Z,5.57
2018-09-17T02:23:01.125Z,6.20
2018-09-17T02:25:30.573Z,6.20
2018-09-17T02:28:00.437Z,6.13
2018-09-17T02:30:31.307Z,6.23
2018-09-17T02:33:00.055Z,6.63
2018-09-17T02:35:28.724Z,6.17
2018-09-17T02:37:58.127Z,6.17
2018-09-17T02:40:27.061Z,5.67
2018-09-17T02:42:55.922Z,5.50
2018-09-17T02:45:24.822Z,6.13
2018-09-17T02:47:53.779Z,5.93
2018-09-17T02:50:22.624Z,6.20
2018-09-17T02:52:52.653Z,6.53
2018-09-17T02:55:22.194Z,6.20
2018-09-17T02:57:51.104Z,6.17
2018-09-17T03:00:21.576Z,6.40
2018-09-17T03:02:52.620Z,5.53
2018-09-17T03:05:21.519Z,5.90
2018-09-17T03:07:50.350Z,5.93
2018-09-17T03:10:19.197Z,6.10
2018-09-17T03:12:48.122Z,5.70
2018-09-17T03:15:28.024Z,6.23
2018-09-17T03:17:56.864Z,6.20
2018-09-17T03:20:25.632Z,6.40
2018-09-17T03:22:54.600Z,5.80
2018-09-17T03:25:24.350Z,6.20
2018-09-17T03:27:53.025Z,6.37
2018-09-17T03:30:21.881Z,5.73
2018-09-17T03:32:50.579Z,5.97
2018-09-17T03:35:19.387Z,6.27
2018-09-17T03:37:48.145Z,6.00
2018-09-17T03:40:17.133Z,6.53
2018-09-17T03:42:47.164Z,6.27
2018-09-17T03:45:15.848Z,6.50
2018-09-17T03:47:45.152Z,5.83
2018-09-17T03:50:13.973Z,6.17
2018-09-17T03:52:43.538Z,6.60
2018-09-17T03:55:12.179Z,6.33
2018-09-17T03:57:42.146Z,6.10
2018-09-17T04:00:11.468Z,6.47
2018-09-17T04:02:41.468Z,6.87
2018-09-17T04:05:10.172Z,6.50
2018-09-17T04:07:40.057Z,6.33
2018-09-17T04:10:09.682Z,6.43
2018-09-17T04:12:39.537Z,6.77
2018-09-17T04:15:08.521Z,5.73
2018-09-17T04:17:39.259Z,6.63
2018-09-17T04:20:09.695Z,6.30
2018-09-17T04:22:40.034Z,6.20
2018-09-17T04:25:08.990Z,6.63
2018-09-17T04:27:37.942Z,6.70
2018-09-17T04:30:07.094Z,5.43
2018-09-17T04:32:36.273Z,6.37
2018-09-17T04:35:07.334Z,6.13
2018-09-17T04:37:37.189Z,5.90
2018-09-17T04:40:06.784Z,6.67
2018-09-17T04:42:36.143Z,6.00
2018-09-17T04:45:06.394Z,6.27
2018-09-17T04:47:35.662Z,5.97
2018-09-17T04:50:04.971Z,6.90
2018-09-17T04:52:34.112Z,6.50
2018-09-17T04:55:03.187Z,6.50
2018-09-17T04:57:31.952Z,7.13
2018-09-17T05:00:03.729Z,6.47
2018-09-17T05:02:32.490Z,6.33
2018-09-17T05:05:01.303Z,6.40
2018-09-17T05:07:30.106Z,6.97
2018-09-17T05:09:58.792Z,6.53
2018-09-17T05:12:28.575Z,6.17
2018-09-17T05:14:58.692Z,6.87
2018-09-17T05:17:27.388Z,5.97
2018-09-17T05:19:56.730Z,7.00
2018-09-17T05:22:26.055Z,6.57
2018-09-17T05:24:54.776Z,6.93
2018-09-17T05:27:23.730Z,6.20
2018-09-17T05:29:54.197Z,6.30
2018-09-17T05:32:22.930Z,7.50
2018-09-17T05:34:51.821Z,7.20
2018-09-17T05:37:20.651Z,7.43
2018-09-17T05:39:49.350Z,6.63
2018-09-17T05:42:18.804Z,6.50
2018-09-17T05:44:47.608Z,7.00
2018-09-17T05:47:16.730Z,6.37
2018-09-17T05:49:45.419Z,6.10
2018-09-17T05:52:14.084Z,6.80
2018-09-17T05:54:42.873Z,6.70
2018-09-17T05:57:12.098Z,5.87
2018-09-17T05:59:41.727Z,7.10
2018-09-17T06:02:10.759Z,6.70
2018-09-17T06:04:39.541Z,6.70
2018-09-17T06:07:09.184Z,7.33
2018-09-17T06:09:37.877Z,6.70
2018-09-17T06:12:06.675Z,6.80
2018-09-17T06:14:35.552Z,6.50
2018-09-17T06:17:04.256Z,6.70
2018-09-17T06:19:32.968Z,6.13
2018-09-17T06:22:02.168Z,6.73
2018-09-17T06:24:30.911Z,6.30
2018-09-17T06:26:59.597Z,7.00
2018-09-17T06:29:29.029Z,6.13
2018-09-17T06:31:58.822Z,6.43
2018-09-17T06:34:27.544Z,6.10
2018-09-17T06:39:25.127Z,6.60
2018-09-17T06:41:53.785Z,6.53
2018-09-17T06:44:23.271Z,6.67
2018-09-17T06:46:51.960Z,5.97
2018-09-17T06:49:20.619Z,6.63
2018-09-17T06:51:50.002Z,6.00
2018-09-17T06:54:22.319Z,6.20
2018-09-17T06:56:51.090Z,6.20
2018-09-17T06:59:20.435Z,6.10
2018-09-17T07:01:49.302Z,5.83
2018-09-17T07:04:18.073Z,6.00
2018-09-17T07:06:47.881Z,6.00
2018-09-17T07:09:19.038Z,5.90
2018-09-17T07:11:48.529Z,6.10
2018-09-17T07:14:17.156Z,6.53
2018-09-17T07:16:45.886Z,5.47
2018-09-17T07:19:14.553Z,5.60
2018-09-17T07:21:44.116Z,4.70
2018-09-17T07:24:13.185Z,5.30
2018-09-17T07:26:41.747Z,5.20
2018-09-17T07:29:10.346Z,5.20
2018-09-17T07:31:38.854Z,4.90
2018-09-17T07:34:07.449Z,4.37
2018-09-17T07:36:36.144Z,4.23
2018-09-17T07:39:07.997Z,4.47
2018-09-17T07:41:37.367Z,4.27
2018-09-17T07:44:06.088Z,4.57
2018-09-17T07:46:38.471Z,4.70
2018-09-17T07:49:07.318Z,4.67
2018-09-17T07:51:36.691Z,4.60
2018-09-17T07:54:06.185Z,4.00
2018-09-17T07:56:34.814Z,4.10
2018-09-17T07:59:03.563Z,3.97
2018-09-17T08:01:32.609Z,3.73
2018-09-17T08:04:01.427Z,3.97
2018-09-17T08:06:30.787Z,4.23
2018-09-17T08:08:59.401Z,3.80
2018-09-17T08:11:28.841Z,3.80
2018-09-17T08:13:57.321Z,4.07
2018-09-17T08:16:26.785Z,3.87
2018-09-17T08:18:55.706Z,3.67
2018-09-17T08:21:26.664Z,3.47
2018-09-17T08:23:56.739Z,3.30
2018-09-17T08:26:26.162Z,3.33
2018-09-17T08:28:54.899Z,3.33
2018-09-17T08:31:23.741Z,3.30
2018-09-17T08:33:52.480Z,3.10
2018-09-17T08:36:21.376Z,3.50
2018-09-17T08:38:50.380Z,3.87
2018-09-17T08:41:19.158Z,3.30
2018-09-17T08:43:48.366Z,3.20
2018-09-17T08:46:17.010Z,2.90
2018-09-17T08:48:46.576Z,2.73
2018-09-17T08:51:15.229Z,4.33
2018-09-17T08:53:44.623Z,3.90
2018-09-17T08:56:18.510Z,3.23
2018-09-17T08:58:52.418Z,2.85
2018-09-17T09:01:26.232Z,3.03
2018-09-17T09:04:00.252Z,2.83
2018-09-17T09:06:34.081Z,2.63
2018-09-17T09:09:04.719Z,2.67
2018-09-17T09:11:38.761Z,2.67
2018-09-17T09:14:09.912Z,3.53
2018-09-17T09:16:38.477Z,3.40
2018-09-17T09:19:09.017Z,2.83
2018-09-17T09:21:38.606Z,3.40
2018-09-17T09:24:07.209Z,3.20
2018-09-17T09:26:37.492Z,2.60
2018-09-17T09:29:06.031Z,2.60
2018-09-17T09:31:34.683Z,2.73
2018-09-17T09:34:03.209Z,2.80
2018-09-17T09:36:31.724Z,2.90
2018-09-17T09:39:00.243Z,2.45
2018-09-17T09:41:28.748Z,2.65
2018-09-17T09:43:57.351Z,2.30
2018-09-17T09:46:25.967Z,2.35
2018-09-17T09:48:55.540Z,2.15
2018-09-17T09:51:24.359Z,2.52
2018-09-17T09:53:53.667Z,2.35
2018-09-17T09:56:22.504Z,1.95
2018-09-17T09:58:51.032Z,2.02
2018-09-17T10:01:26.834Z,2.00
2018-09-17T10:04:01.347Z,1.98
2018-09-17T10:06:31.657Z,2.17
2018-09-17T10:09:06.023Z,1.67
2018-09-17T10:11:39.915Z,2.10
2018-09-17T10:14:13.681Z,2.02
2018-09-17T10:17:45.471Z,1.80
2018-09-17T10:20:14.598Z,1.70
2018-09-17T10:22:43.352Z,1.67
2018-09-17T10:25:12.033Z,1.90
2018-09-17T10:27:41.737Z,1.90
2018-09-17T10:30:10.962Z,1.80
2018-09-17T10:32:39.615Z,2.00
2018-09-17T10:35:08.510Z,2.22
2018-09-17T10:37:37.017Z,2.22
2018-09-17T10:40:06.265Z,2.17
2018-09-17T10:42:35.579Z,2.10
2018-09-17T10:45:04.061Z,2.25
2018-09-17T10:47:32.653Z,2.10
2018-09-17T10:50:02.197Z,1.90
2018-09-17T10:52:30.876Z,1.60
2018-09-17T10:55:02.022Z,1.67
2018-09-17T10:57:31.215Z,1.45
2018-09-17T10:59:59.990Z,1.32
2018-09-17T11:02:29.156Z,1.90
2018-09-17T11:04:57.609Z,1.77
2018-09-17T11:07:26.215Z,1.70
2018-09-17T11:09:54.705Z,1.80
2018-09-17T11:12:23.140Z,2.10
2018-09-17T11:14:51.817Z,3.35
2018-09-17T11:17:20.357Z,1.60
2018-09-17T11:19:48.791Z,1.60
2018-09-17T11:22:18.482Z,1.65
2018-09-17T11:24:47.964Z,1.70
2018-09-17T11:27:16.518Z,1.33
2018-09-17T11:29:45.041Z,1.90
2018-09-17T11:32:13.618Z,2.00
2018-09-17T11:34:42.609Z,1.80
2018-09-17T11:37:11.219Z,1.50
2018-09-17T11:39:39.774Z,1.67
2018-09-17T11:42:08.754Z,1.60
2018-09-17T11:44:37.455Z,1.70
2018-09-17T11:47:06.286Z,1.60
2018-09-17T11:49:36.269Z,1.73
2018-09-17T11:52:04.771Z,1.70
2018-09-17T11:54:33.821Z,1.80
2018-09-17T11:57:02.432Z,1.60
2018-09-17T11:59:31.425Z,1.90
2018-09-17T12:02:05.905Z,1.80
2018-09-17T12:04:42.228Z,1.73
2018-09-17T12:07:16.115Z,2.03
2018-09-17T12:09:44.739Z,1.73
2018-09-17T12:12:14.264Z,1.70
2018-09-17T12:14:42.733Z,1.73
2018-09-17T12:17:11.263Z,1.67
2018-09-17T12:19:39.852Z,1.57
2018-09-17T12:22:08.298Z,1.70
2018-09-17T12:24:36.750Z,1.53
2018-09-17T12:27:05.242Z,1.73
2018-09-17T12:29:33.903Z,1.60
2018-09-17T12:32:03.590Z,1.60
2018-09-17T12:34:32.202Z,1.80
2018-09-17T12:37:00.797Z,1.97
2018-09-17T12:39:29.496Z,1.90
2018-09-17T12:41:58.421Z,1.70
2018-09-17T12:44:26.963Z,1.70
2018-09-17T12:46:55.662Z,1.80
2018-09-17T12:49:24.189Z,1.93
2018-09-17T12:51:53.642Z,2.00
2018-09-17T12:54:22.261Z,1.90
2018-09-17T12:56:51.040Z,1.80
2018-09-17T12:59:20.145Z,1.80
2018-09-17T13:01:48.880Z,1.77
2018-09-17T13:04:17.539Z,1.90
2018-09-17T13:06:46.430Z,2.27
2018-09-17T13:09:16.006Z,2.20
2018-09-17T13:11:44.520Z,2.17
2018-09-17T13:14:13.033Z,2.00
2018-09-17T13:18:06.004Z,2.20
2018-09-17T13:20:34.544Z,2.10
2018-09-17T13:23:03.554Z,2.13
2018-09-17T13:25:32.116Z,2.00
2018-09-17T13:28:00.740Z,2.13
2018-09-17T13:30:29.392Z,2.00
2018-09-17T13:32:58.006Z,1.90
2018-09-17T13:35:26.455Z,2.23
2018-09-17T13:37:55.059Z,2.10
2018-09-17T13:40:23.522Z,1.83
2018-09-17T13:42:52.278Z,2.03
2018-09-17T13:45:20.818Z,1.80
2018-09-17T13:47:49.873Z,2.10
2018-09-17T13:50:18.484Z,2.00
2018-09-17T13:52:46.956Z,1.70
2018-09-17T13:55:15.389Z,1.80
2018-09-17T13:57:43.818Z,2.00
2018-09-17T14:00:13.734Z,1.87
2018-09-17T14:02:42.357Z,1.80
2018-09-17T14:05:11.735Z,2.00
2018-09-17T14:07:42.581Z,1.73
2018-09-17T14:10:11.755Z,1.60
2018-09-17T14:12:40.206Z,2.10
2018-09-17T14:15:08.829Z,1.90
2018-09-17T14:17:37.433Z,2.00
2018-09-17T14:20:06.217Z,1.73
2018-09-17T14:22:34.718Z,1.60
2018-09-17T14:25:03.560Z,1.60
2018-09-17T14:27:33.615Z,2.00
2018-09-17T14:30:03.308Z,1.70
2018-09-17T14:33:35.504Z,1.70
2018-09-17T14:36:05.501Z,1.73
2018-09-17T14:38:35.034Z,1.63
2018-09-17T14:41:03.887Z,1.70
2018-09-17T14:43:32.484Z,1.53
2018-09-17T14:46:01.091Z,2.03
2018-09-17T14:48:30.259Z,1.57
2018-09-17T14:50:58.950Z,1.70
2018-09-17T14:53:28.084Z,1.63
2018-09-17T14:55:56.732Z,1.70
2018-09-17T14:58:25.359Z,1.70
2018-09-17T15:00:54.530Z,1.90
2018-09-17T15:03:24.294Z,1.73
2018-09-17T15:05:52.902Z,1.90
2018-09-17T15:08:22.259Z,2.00
2018-09-17T15:10:50.865Z,1.63
2018-09-17T15:13:19.623Z,2.13
2018-09-17T15:15:53.525Z,1.70
2018-09-17T15:18:22.655Z,1.53
2018-09-17T15:20:52.141Z,1.93
2018-09-17T15:23:21.294Z,1.50
2018-09-17T15:25:50.326Z,1.73
2018-09-17T15:28:19.352Z,2.00
2018-09-17T15:30:52.579Z,2.40
2018-09-17T15:33:22.710Z,2.30
2018-09-17T15:35:55.003Z,2.67
2018-09-17T15:38:23.746Z,2.17
2018-09-17T15:40:56.962Z,2.23
2018-09-17T15:43:26.329Z,2.10
2018-09-17T15:45:56.088Z,3.37
2018-09-17T15:48:25.371Z,2.47
2018-09-17T15:50:55.432Z,2.60
2018-09-17T15:53:24.158Z,2.00
2018-09-17T15:55:54.834Z,2.40
2018-09-17T15:58:29.403Z,3.07
2018-09-17T16:01:07.073Z,2.60
2018-09-17T16:03:35.783Z,2.27
2018-09-17T16:06:04.149Z,2.63
2018-09-17T16:08:32.545Z,2.47
2018-09-17T16:11:00.904Z,2.70
2018-09-17T16:13:29.505Z,2.77
2018-09-17T16:15:57.864Z,2.53
2018-09-17T16:18:26.354Z,2.43
2018-09-17T16:20:54.768Z,3.47
2018-09-17T16:23:23.136Z,2.80
2018-09-17T16:25:51.484Z,2.90
2018-09-17T16:28:19.883Z,2.97
2018-09-17T16:30:48.658Z,3.07
2018-09-17T16:33:16.996Z,2.77
2018-09-17T16:35:45.292Z,2.93
2018-09-17T16:38:13.643Z,3.60
2018-09-17T16:40:41.968Z,3.43
2018-09-17T16:43:10.320Z,3.40
2018-09-17T16:45:38.687Z,4.20
2018-09-17T16:48:07.030Z,4.27
2018-09-17T16:50:35.375Z,5.50
2018-09-17T16:53:03.724Z,4.17
2018-09-17T16:55:32.143Z,4.23
2018-09-17T16:58:00.664Z,7.17
2018-09-17T17:00:29.096Z,5.83
2018-09-17T17:02:57.952Z,3.40
2018-09-17T17:05:26.311Z,4.10
2018-09-17T17:07:55.646Z,3.73
2018-09-17T17:10:24.136Z,3.53
2018-09-17T17:12:57.168Z,4.10
2018-09-17T17:15:25.788Z,3.83
2018-09-17T17:17:54.605Z,4.80
2018-09-17T17:20:23.057Z,4.30
2018-09-17T17:22:52.604Z,6.47
2018-09-17T17:25:21.234Z,4.37
2018-09-17T17:27:49.603Z,5.17
2018-09-17T17:30:17.909Z,3.83
2018-09-17T17:32:46.249Z,3.37
2018-09-17T17:35:14.803Z,5.20
2018-09-17T17:37:43.218Z,5.33
2018-09-17T17:40:11.569Z,5.30
2018-09-17T17:42:39.934Z,5.97
2018-09-17T17:45:08.357Z,5.20
2018-09-17T17:47:36.731Z,12.73
2018-09-17T17:50:05.437Z,23.10
2018-09-17T17:52:33.995Z,15.10
2018-09-17T17:55:02.555Z,11.00
2018-09-17T17:57:30.895Z,18.37
2018-09-17T17:59:59.204Z,12.93
2018-09-17T18:02:27.516Z,5.87
2018-09-17T18:04:55.861Z,6.47
2018-09-17T18:07:24.205Z,6.73
2018-09-17T18:09:52.517Z,6.90
2018-09-17T18:12:21.443Z,10.03
2018-09-17T18:14:49.861Z,7.10
2018-09-17T18:17:18.194Z,5.77
2018-09-17T18:19:46.513Z,6.00
2018-09-17T18:22:14.893Z,5.87
2018-09-17T18:24:43.291Z,6.43
2018-09-17T18:27:11.647Z,7.00
2018-09-17T18:29:40.176Z,7.33
2018-09-17T18:32:08.778Z,6.47
2018-09-17T18:34:37.135Z,8.43
2018-09-17T18:37:05.871Z,8.03
2018-09-17T18:39:34.573Z,19.80
2018-09-17T18:42:03.475Z,8.07
2018-09-17T18:44:31.852Z,7.27
2018-09-17T18:47:00.221Z,9.47
2018-09-17T18:49:28.532Z,15.67
2018-09-17T18:51:56.935Z,10.93
2018-09-17T18:54:25.745Z,13.87
2018-09-17T18:56:54.125Z,8.93
2018-09-17T18:59:22.832Z,7.00
2018-09-17T19:01:51.162Z,6.97
2018-09-17T19:04:19.520Z,7.20
2018-09-17T19:06:47.866Z,7.90
2018-09-17T19:09:16.829Z,6.83
2018-09-17T19:11:45.305Z,7.83
2018-09-17T19:14:20.436Z,7.53
2018-09-17T19:16:55.891Z,7.30
2018-09-17T19:19:24.688Z,8.97
2018-09-17T19:23:01.158Z,7.07
2018-09-17T19:25:29.466Z,8.03
2018-09-17T19:28:04.737Z,7.10
2018-09-17T19:30:33.090Z,8.73
2018-09-17T19:33:01.404Z,7.67
2018-09-17T19:35:29.741Z,6.40
2018-09-17T19:38:03.450Z,6.47
2018-09-17T19:40:32.372Z,11.87
2018-09-17T19:43:00.717Z,52.97
2018-09-17T19:45:34.581Z,20.10
2018-09-17T19:48:02.992Z,8.00
2018-09-17T19:50:37.420Z,6.80
2018-09-17T19:53:05.804Z,7.53
2018-09-17T19:55:34.945Z,6.80
2018-09-17T19:58:08.695Z,7.43
2018-09-17T20:00:37.133Z,9.57
2018-09-17T20:03:05.412Z,7.63
2018-09-17T20:05:39.157Z,7.77
2018-09-17T20:08:08.575Z,7.60
2018-09-17T20:10:37.744Z,6.87
2018-09-17T20:13:06.163Z,6.50
2018-09-17T20:15:34.491Z,7.00
2018-09-17T20:18:02.900Z,6.83
2018-09-17T20:20:31.469Z,6.80
2018-09-17T20:22:59.790Z,7.00
2018-09-17T20:25:28.207Z,5.93
2018-09-17T20:27:56.540Z,6.03
2018-09-17T20:30:24.894Z,6.20
2018-09-17T20:32:53.269Z,6.50
2018-09-17T20:35:21.774Z,6.53
2018-09-17T20:37:50.128Z,7.40
2018-09-17T20:40:18.445Z,7.93
2018-09-17T20:42:46.795Z,7.40
2018-09-17T20:45:15.173Z,7.87
2018-09-17T20:47:43.503Z,7.53
2018-09-17T20:50:12.542Z,7.67
2018-09-17T20:52:41.042Z,7.03
2018-09-17T20:55:09.369Z,7.93
2018-09-17T20:57:37.715Z,8.60
2018-09-17T21:00:06.066Z,7.80
2018-09-17T21:02:34.393Z,7.93
2018-09-17T21:05:02.738Z,7.73
2018-09-17T21:07:31.077Z,7.67
2018-09-17T21:09:59.410Z,7.90
2018-09-17T21:12:27.815Z,8.13
2018-09-17T21:14:56.152Z,7.93
2018-09-17T21:17:24.516Z,8.73
2018-09-17T21:19:52.963Z,7.40
2018-09-17T21:22:21.327Z,7.67
2018-09-17T21:24:49.744Z,7.50
2018-09-17T21:27:18.123Z,7.93
2018-09-17T21:29:46.584Z,8.53
2018-09-17T21:32:15.012Z,7.90
2018-09-17T21:34:43.369Z,8.00
2018-09-17T21:37:11.759Z,7.40
2018-09-17T21:39:40.170Z,7.47
2018-09-17T21:42:08.737Z,7.87
2018-09-17T21:44:37.117Z,7.27
2018-09-17T21:47:05.503Z,7.47
2018-09-17T21:49:33.834Z,8.17
2018-09-17T21:52:02.156Z,8.27
2018-09-17T21:54:30.604Z,7.73
2018-09-17T21:56:58.981Z,8.07
2018-09-17T21:59:27.303Z,7.80
2018-09-17T22:01:55.674Z,7.73
2018-09-17T22:04:26.706Z,8.10
2018-09-17T22:06:56.453Z,8.60
2018-09-17T22:09:35.184Z,8.50
2018-09-17T22:12:08.889Z,8.10
2018-09-17T22:14:37.338Z,7.97
2018-09-17T22:17:06.379Z,8.30
2018-09-17T22:19:34.799Z,8.03
2018-09-17T22:22:03.156Z,7.90
2018-09-17T22:24:31.533Z,8.00
2018-09-17T22:27:01.041Z,7.73
2018-09-17T22:29:29.456Z,7.07
2018-09-17T22:31:58.315Z,7.73
2018-09-17T22:34:26.764Z,7.97
2018-09-17T22:36:56.880Z,7.97
2018-09-17T22:39:25.293Z,8.57
2018-09-17T22:41:54.488Z,8.37
2018-09-17T22:44:22.823Z,9.33
2018-09-17T22:46:51.147Z,9.07
2018-09-17T22:49:20.161Z,8.30
2018-09-17T22:51:48.571Z,8.40
2018-09-17T22:54:16.926Z,8.73
2018-09-17T22:56:45.277Z,8.83
2018-09-17T22:59:14.932Z,9.10
2018-09-17T23:01:44.269Z,8.93
2018-09-17T23:04:12.625Z,8.27
2018-09-17T23:06:40.987Z,9.10
2018-09-17T23:09:10.443Z,8.40
2018-09-17T23:11:38.816Z,9.13
2018-09-17T23:14:07.179Z,7.83
2018-09-17T23:16:35.521Z,8.50
2018-09-17T23:19:03.872Z,7.87
2018-09-17T23:21:32.188Z,7.87
2018-09-17T23:24:00.520Z,8.13
2018-09-17T23:26:28.867Z,7.73
2018-09-17T23:28:57.216Z,8.47
2018-09-17T23:31:25.865Z,7.80
2018-09-17T23:33:54.195Z,8.17
2018-09-17T23:36:22.555Z,8.13
2018-09-17T23:38:51.344Z,7.00
2018-09-17T23:41:19.695Z,8.27
2018-09-17T23:43:48.220Z,7.33
2018-09-17T23:46:16.624Z,7.83
2018-09-17T23:48:45.026Z,8.33
2018-09-17T23:51:13.509Z,7.70
2018-09-17T23:55:06.275Z,7.57
2018-09-17T23:57:34.620Z,7.47
